sensor_id;sensor_type;location;lat;lon;timestamp;pressure;altitude;pressure_sealevel;temperature;humidity
50774;BME280;36745;48.544;8.918;2022-11-18T00:00:42;95568.38;;;8.15;100.00
50774;BME280;36745;48.544;8.918;2022-11-18T00:04:03;95590.91;;;8.19;100.00
50774;BME280;36745;48.544;8.918;2022-11-18T00:07:25;95582.97;;;8.21;100.00
50774;BME280;36745;48.544;8.918;2022-11-18T00:10:46;95583.31;;;8.14;100.00
50774;BME280;36745;48.544;8.918;2022-11-18T00:14:13;95580.84;;;8.16;100.00
50774;BME280;36745;48.544;8.918;2022-11-18T00:17:41;95592.03;;;8.12;100.00
50774;BME280;36745;48.544;8.918;2022-11-18T00:21:07;95594.31;;;8.14;100.00
50774;BME280;36745;48.544;8.918;2022-11-18T00:24:29;95607.84;;;8.17;100.00
50774;BME280;36745;48.544;8.918;2022-11-18T00:27:50;95599.44;;;8.21;100.00
50774;BME280;36745;48.544;8.918;2022-11-18T00:31:12;95594.97;;;8.32;100.00
50774;BME280;36745;48.544;8.918;2022-11-18T00:34:33;95593.78;;;8.24;100.00
50774;BME280;36745;48.544;8.918;2022-11-18T00:37:55;95599.78;;;8.14;100.00
50774;BME280;36745;48.544;8.918;2022-11-18T00:41:16;95587.72;;;8.20;100.00
50774;BME280;36745;48.544;8.918;2022-11-18T00:44:37;95591.84;;;8.16;100.00
50774;BME280;36745;48.544;8.918;2022-11-18T00:47:58;95591.84;;;8.16;100.00
50774;BME280;36745;48.544;8.918;2022-11-18T00:51:20;95592.25;;;8.23;100.00
50774;BME280;36745;48.544;8.918;2022-11-18T00:54:41;95590.91;;;8.19;100.00
50774;BME280;36745;48.544;8.918;2022-11-18T00:58:03;95588.50;;;8.12;100.00
50774;BME280;36745;48.544;8.918;2022-11-18T01:01:24;95584.56;;;8.13;100.00
50774;BME280;36745;48.544;8.918;2022-11-18T01:04:46;95582.63;;;8.28;100.00
50774;BME280;36745;48.544;8.918;2022-11-18T01:08:09;95586.97;;;8.20;100.00
50774;BME280;36745;48.544;8.918;2022-11-18T01:11:30;95596.56;;;8.15;100.00
50774;BME280;36745;48.544;8.918;2022-11-18T01:15:10;95593.38;;;8.17;100.00
50774;BME280;36745;48.544;8.918;2022-11-18T01:18:31;95587.88;;;8.17;100.00
50774;BME280;36745;48.544;8.918;2022-11-18T01:21:53;95593.72;;;8.10;100.00
50774;BME280;36745;48.544;8.918;2022-11-18T01:25:16;95597.84;;;8.05;100.00
50774;BME280;36745;48.544;8.918;2022-11-18T01:28:38;95597.69;;;8.09;100.00
50774;BME280;36745;48.544;8.918;2022-11-18T01:31:59;95603.19;;;8.09;100.00
50774;BME280;36745;48.544;8.918;2022-11-18T01:35:21;95608.06;;;8.05;100.00
50774;BME280;36745;48.544;8.918;2022-11-18T01:38:42;95611.69;;;8.11;100.00
50774;BME280;36745;48.544;8.918;2022-11-18T01:42:03;95607.25;;;8.13;100.00
50774;BME280;36745;48.544;8.918;2022-11-18T01:45:30;95619.03;;;8.05;100.00
50774;BME280;36745;48.544;8.918;2022-11-18T01:48:55;95612.13;;;8.18;100.00
50774;BME280;36745;48.544;8.918;2022-11-18T01:52:18;95614.75;;;8.13;100.00
50774;BME280;36745;48.544;8.918;2022-11-18T01:55:43;95616.38;;;8.19;100.00
50774;BME280;36745;48.544;8.918;2022-11-18T01:59:09;95615.38;;;8.08;100.00
50774;BME280;36745;48.544;8.918;2022-11-18T02:02:34;95619.97;;;8.01;100.00
50774;BME280;36745;48.544;8.918;2022-11-18T02:05:59;95621.19;;;8.00;100.00
50774;BME280;36745;48.544;8.918;2022-11-18T02:09:21;95619.38;;;7.97;100.00
50774;BME280;36745;48.544;8.918;2022-11-18T02:12:43;95626.41;;;7.98;100.00
50774;BME280;36745;48.544;8.918;2022-11-18T02:16:13;95629.94;;;7.90;100.00
50774;BME280;36745;48.544;8.918;2022-11-18T02:27:26;95622.75;;;7.92;100.00
50774;BME280;36745;48.544;8.918;2022-11-18T02:31:02;95617.41;;;7.98;100.00
50774;BME280;36745;48.544;8.918;2022-11-18T02:34:59;95621.53;;;7.93;100.00
50774;BME280;36745;48.544;8.918;2022-11-18T02:38:26;95628.25;;;7.92;100.00
50774;BME280;36745;48.544;8.918;2022-11-18T02:41:50;95623.22;;;7.91;100.00
50774;BME280;36745;48.544;8.918;2022-11-18T02:45:16;95625.97;;;7.91;100.00
50774;BME280;36745;48.544;8.918;2022-11-18T02:48:43;95631.75;;;7.93;100.00
50774;BME280;36745;48.544;8.918;2022-11-18T02:52:06;95632.22;;;7.91;100.00
50774;BME280;36745;48.544;8.918;2022-11-18T02:55:33;95636.47;;;7.92;100.00
50774;BME280;36745;48.544;8.918;2022-11-18T02:58:55;95637.13;;;7.87;100.00
50774;BME280;36745;48.544;8.918;2022-11-18T03:02:18;95641.84;;;7.87;100.00
50774;BME280;36745;48.544;8.918;2022-11-18T03:05:48;95643.22;;;7.82;100.00
50774;BME280;36745;48.544;8.918;2022-11-18T03:09:32;95657.94;;;7.94;100.00
50774;BME280;36745;48.544;8.918;2022-11-18T03:13:10;95662.53;;;7.97;100.00
50774;BME280;36745;48.544;8.918;2022-11-18T03:16:40;95673.97;;;7.95;100.00
50774;BME280;36745;48.544;8.918;2022-11-18T03:23:38;95681.28;;;7.98;100.00
50774;BME280;36745;48.544;8.918;2022-11-18T03:27:09;95684.56;;;8.12;100.00
50774;BME280;36745;48.544;8.918;2022-11-18T03:30:37;95692.09;;;8.02;100.00
50774;BME280;36745;48.544;8.918;2022-11-18T03:34:05;95691.00;;;8.09;100.00
50774;BME280;36745;48.544;8.918;2022-11-18T03:37:32;95694.19;;;8.07;100.00
50774;BME280;36745;48.544;8.918;2022-11-18T03:40:57;95692.41;;;7.95;100.00
50774;BME280;36745;48.544;8.918;2022-11-18T03:44:25;95701.84;;;7.94;100.00
50774;BME280;36745;48.544;8.918;2022-11-18T03:47:57;95713.44;;;7.98;100.00
50774;BME280;36745;48.544;8.918;2022-11-18T03:51:25;95715.56;;;8.03;100.00
50774;BME280;36745;48.544;8.918;2022-11-18T03:54:51;95728.81;;;8.05;100.00
50774;BME280;36745;48.544;8.918;2022-11-18T03:58:22;95736.75;;;8.02;100.00
50774;BME280;36745;48.544;8.918;2022-11-18T04:01:52;95735.53;;;7.94;100.00
50774;BME280;36745;48.544;8.918;2022-11-18T04:05:16;95738.28;;;7.94;100.00
50774;BME280;36745;48.544;8.918;2022-11-18T04:08:41;95742.44;;;7.63;100.00
50774;BME280;36745;48.544;8.918;2022-11-18T04:12:11;95736.84;;;7.48;100.00
50774;BME280;36745;48.544;8.918;2022-11-18T04:15:36;95745.69;;;7.43;100.00
50774;BME280;36745;48.544;8.918;2022-11-18T04:18:58;95752.84;;;7.31;100.00
50774;BME280;36745;48.544;8.918;2022-11-18T04:22:20;95744.44;;;7.35;100.00
50774;BME280;36745;48.544;8.918;2022-11-18T04:25:41;95758.19;;;7.44;100.00
50774;BME280;36745;48.544;8.918;2022-11-18T04:29:02;95756.81;;;7.39;100.00
50774;BME280;36745;48.544;8.918;2022-11-18T04:32:23;95766.09;;;7.42;100.00
50774;BME280;36745;48.544;8.918;2022-11-18T04:35:46;95768.81;;;7.51;100.00
50774;BME280;36745;48.544;8.918;2022-11-18T04:39:07;95779.94;;;7.47;100.00
50774;BME280;36745;48.544;8.918;2022-11-18T04:42:28;95778.91;;;7.45;100.00
50774;BME280;36745;48.544;8.918;2022-11-18T04:45:49;95776.16;;;7.45;100.00
50774;BME280;36745;48.544;8.918;2022-11-18T04:49:12;95772.78;;;7.41;100.00
50774;BME280;36745;48.544;8.918;2022-11-18T04:52:34;95773.09;;;7.43;100.00
50774;BME280;36745;48.544;8.918;2022-11-18T04:55:55;95779.78;;;7.42;100.00
50774;BME280;36745;48.544;8.918;2022-11-18T04:59:19;95774.47;;;7.47;100.00
50774;BME280;36745;48.544;8.918;2022-11-18T05:02:40;95779.34;;;7.43;100.00
50774;BME280;36745;48.544;8.918;2022-11-18T05:06:01;95781.59;;;7.36;100.00
50774;BME280;36745;48.544;8.918;2022-11-18T05:09:23;95786.50;;;7.32;100.00
50774;BME280;36745;48.544;8.918;2022-11-18T05:12:45;95786.66;;;7.28;100.00
50774;BME280;36745;48.544;8.918;2022-11-18T05:16:09;95791.03;;;7.26;100.00
50774;BME280;36745;48.544;8.918;2022-11-18T05:19:30;95795.91;;;7.31;100.00
50774;BME280;36745;48.544;8.918;2022-11-18T05:22:51;95787.25;;;7.41;100.00
50774;BME280;36745;48.544;8.918;2022-11-18T05:26:12;95794.41;;;7.39;100.00
50774;BME280;36745;48.544;8.918;2022-11-18T05:29:34;95805.69;;;7.32;100.00
50774;BME280;36745;48.544;8.918;2022-11-18T05:32:55;95807.50;;;7.26;100.00
50774;BME280;36745;48.544;8.918;2022-11-18T05:36:18;95815.41;;;7.24;100.00
50774;BME280;36745;48.544;8.918;2022-11-18T05:39:40;95815.41;;;7.24;100.00
50774;BME280;36745;48.544;8.918;2022-11-18T05:43:01;95819.81;;;7.30;100.00
50774;BME280;36745;48.544;8.918;2022-11-18T05:46:32;95824.25;;;7.37;100.00
50774;BME280;36745;48.544;8.918;2022-11-18T05:49:56;95836.44;;;7.36;100.00
50774;BME280;36745;48.544;8.918;2022-11-18T05:53:20;95834.31;;;7.40;100.00
50774;BME280;36745;48.544;8.918;2022-11-18T05:56:43;95844.06;;;7.32;100.00
50774;BME280;36745;48.544;8.918;2022-11-18T06:00:07;95844.06;;;7.41;100.00
50774;BME280;36745;48.544;8.918;2022-11-18T06:03:30;95845.44;;;7.36;100.00
50774;BME280;36745;48.544;8.918;2022-11-18T06:06:58;95852.59;;;7.34;100.00
50774;BME280;36745;48.544;8.918;2022-11-18T06:10:30;95849.22;;;7.30;100.00
50774;BME280;36745;48.544;8.918;2022-11-18T06:14:05;95851.97;;;7.30;100.00
50774;BME280;36745;48.544;8.918;2022-11-18T06:17:31;95848.91;;;7.28;100.00
50774;BME280;36745;48.544;8.918;2022-11-18T06:20:58;95851.84;;;7.33;100.00
50774;BME280;36745;48.544;8.918;2022-11-18T06:24:23;95863.25;;;7.32;100.00
50774;BME280;36745;48.544;8.918;2022-11-18T06:27:46;95866.59;;;7.36;100.00
50774;BME280;36745;48.544;8.918;2022-11-18T06:31:09;95866.31;;;7.34;100.00
50774;BME280;36745;48.544;8.918;2022-11-18T06:34:30;95870.53;;;7.35;100.00
50774;BME280;36745;48.544;8.918;2022-11-18T06:37:52;95875.41;;;7.31;100.00
50774;BME280;36745;48.544;8.918;2022-11-18T06:41:15;95879.25;;;7.33;100.00
50774;BME280;36745;48.544;8.918;2022-11-18T06:44:40;95878.44;;;7.24;100.00
50774;BME280;36745;48.544;8.918;2022-11-18T06:48:01;95888.81;;;7.29;100.00
50774;BME280;36745;48.544;8.918;2022-11-18T06:51:24;95885.94;;;7.32;100.00
50774;BME280;36745;48.544;8.918;2022-11-18T06:54:46;95897.66;;;7.33;100.00
50774;BME280;36745;48.544;8.918;2022-11-18T06:58:07;95905.56;;;7.31;100.00
50774;BME280;36745;48.544;8.918;2022-11-18T07:01:30;95901.59;;;7.23;100.00
50774;BME280;36745;48.544;8.918;2022-11-18T07:04:52;95901.59;;;7.23;100.00
50774;BME280;36745;48.544;8.918;2022-11-18T07:08:13;95907.09;;;7.23;100.00
50774;BME280;36745;48.544;8.918;2022-11-18T07:11:35;95900.06;;;7.22;100.00
50774;BME280;36745;48.544;8.918;2022-11-18T07:14:58;95905.53;;;7.22;100.00
50774;BME280;36745;48.544;8.918;2022-11-18T07:18:19;95911.66;;;7.35;100.00
50774;BME280;36745;48.544;8.918;2022-11-18T07:21:41;95911.69;;;7.44;100.00
50774;BME280;36745;48.544;8.918;2022-11-18T07:25:03;95922.34;;;7.51;100.00
50774;BME280;36745;48.544;8.918;2022-11-18T07:28:28;95921.31;;;7.57;100.00
50774;BME280;36745;48.544;8.918;2022-11-18T07:31:50;95926.69;;;7.61;100.00
50774;BME280;36745;48.544;8.918;2022-11-18T07:35:11;95928.81;;;7.66;100.00
50774;BME280;36745;48.544;8.918;2022-11-18T07:38:33;95945.28;;;7.66;100.00
50774;BME280;36745;48.544;8.918;2022-11-18T07:41:54;95941.78;;;7.75;100.00
50774;BME280;36745;48.544;8.918;2022-11-18T07:45:15;95951.69;;;7.81;100.00
50774;BME280;36745;48.544;8.918;2022-11-18T07:48:37;95959.31;;;7.86;100.00
50774;BME280;36745;48.544;8.918;2022-11-18T07:51:58;95961.78;;;7.93;100.00
50774;BME280;36745;48.544;8.918;2022-11-18T07:55:19;95971.22;;;8.01;100.00
50774;BME280;36745;48.544;8.918;2022-11-18T07:58:41;95974.41;;;8.00;100.00
50774;BME280;36745;48.544;8.918;2022-11-18T08:02:03;95984.50;;;8.03;100.00
50774;BME280;36745;48.544;8.918;2022-11-18T08:05:24;95982.19;;;8.01;100.00
50774;BME280;36745;48.544;8.918;2022-11-18T08:09:11;95997.44;;;8.02;100.00
50774;BME280;36745;48.544;8.918;2022-11-18T08:12:32;95997.56;;;7.99;100.00
50774;BME280;36745;48.544;8.918;2022-11-18T08:15:55;96006.13;;;8.01;100.00
50774;BME280;36745;48.544;8.918;2022-11-18T08:19:16;96003.22;;;7.95;100.00
50774;BME280;36745;48.544;8.918;2022-11-18T08:22:37;96005.41;;;8.10;100.00
50774;BME280;36745;48.544;8.918;2022-11-18T08:26:07;96005.53;;;8.06;100.00
50774;BME280;36745;48.544;8.918;2022-11-18T08:29:28;96010.28;;;8.15;100.00
50774;BME280;36745;48.544;8.918;2022-11-18T08:32:50;96006.44;;;8.21;100.00
50774;BME280;36745;48.544;8.918;2022-11-18T08:36:21;96013.03;;;8.15;100.00
50774;BME280;36745;48.544;8.918;2022-11-18T08:39:43;96016.06;;;8.17;100.00
50774;BME280;36745;48.544;8.918;2022-11-18T08:43:05;96010.75;;;8.31;100.00
50774;BME280;36745;48.544;8.918;2022-11-18T08:46:26;96014.91;;;8.45;100.00
50774;BME280;36745;48.544;8.918;2022-11-18T08:49:48;96019.47;;;8.48;100.00
50774;BME280;36745;48.544;8.918;2022-11-18T08:53:09;96013.38;;;8.35;100.00
50774;BME280;36745;48.544;8.918;2022-11-18T08:56:31;96017.97;;;8.47;100.00
50774;BME280;36745;48.544;8.918;2022-11-18T08:59:52;96024.94;;;8.48;100.00
50774;BME280;36745;48.544;8.918;2022-11-18T09:03:13;96031.97;;;8.49;100.00
50774;BME280;36745;48.544;8.918;2022-11-18T09:06:35;96031.06;;;8.52;100.00
50774;BME280;36745;48.544;8.918;2022-11-18T09:09:58;96032.59;;;8.44;100.00
50774;BME280;36745;48.544;8.918;2022-11-18T09:13:19;96039.44;;;8.49;100.00
50774;BME280;36745;48.544;8.918;2022-11-18T09:16:41;96034.88;;;8.36;100.00
50774;BME280;36745;48.544;8.918;2022-11-18T09:20:03;96043.41;;;8.38;100.00
50774;BME280;36745;48.544;8.918;2022-11-18T09:23:24;96039.44;;;8.49;100.00
50774;BME280;36745;48.544;8.918;2022-11-18T09:26:45;96041.13;;;8.64;100.00
50774;BME280;36745;48.544;8.918;2022-11-18T09:30:08;96046.00;;;8.88;100.00
50774;BME280;36745;48.544;8.918;2022-11-18T09:33:30;96050.31;;;8.79;100.00
50774;BME280;36745;48.544;8.918;2022-11-18T09:36:51;96049.03;;;8.99;100.00
50774;BME280;36745;48.544;8.918;2022-11-18T09:40:16;96066.44;;;9.05;100.00
50774;BME280;36745;48.544;8.918;2022-11-18T09:43:52;96054.84;;;9.10;100.00
50774;BME280;36745;48.544;8.918;2022-11-18T09:50:46;96060.75;;;9.26;100.00
50774;BME280;36745;48.544;8.918;2022-11-18T09:54:10;96065.19;;;9.24;100.00
50774;BME280;36745;48.544;8.918;2022-11-18T09:57:54;96060.44;;;9.34;100.00
50774;BME280;36745;48.544;8.918;2022-11-18T10:01:18;96059.91;;;9.53;100.00
50774;BME280;36745;48.544;8.918;2022-11-18T10:04:40;96078.59;;;9.49;100.00
50774;BME280;36745;48.544;8.918;2022-11-18T10:12:11;96072.19;;;9.43;100.00
50774;BME280;36745;48.544;8.918;2022-11-18T10:15:40;96074.25;;;9.57;100.00
50774;BME280;36745;48.544;8.918;2022-11-18T10:19:10;96076.84;;;9.70;100.00
50774;BME280;36745;48.544;8.918;2022-11-18T10:26:34;96087.94;;;9.85;100.00
50774;BME280;36745;48.544;8.918;2022-11-18T10:29:56;96085.75;;;9.98;100.00
50774;BME280;36745;48.544;8.918;2022-11-18T10:36:42;96092.50;;;10.21;100.00
50774;BME280;36745;48.544;8.918;2022-11-18T10:40:04;96091.78;;;10.20;100.00
50774;BME280;36745;48.544;8.918;2022-11-18T10:47:21;96089.59;;;10.48;100.00
50774;BME280;36745;48.544;8.918;2022-11-18T10:50:46;96091.00;;;10.43;100.00
50774;BME280;36745;48.544;8.918;2022-11-18T10:54:21;96104.84;;;10.34;100.00
50774;BME280;36745;48.544;8.918;2022-11-18T10:57:43;96097.16;;;10.38;100.00
50774;BME280;36745;48.544;8.918;2022-11-18T11:04:26;96090.59;;;10.60;100.00
50774;BME280;36745;48.544;8.918;2022-11-18T11:08:22;96096.91;;;10.75;100.00
50774;BME280;36745;48.544;8.918;2022-11-18T11:12:11;96098.59;;;10.58;100.00
50774;BME280;36745;48.544;8.918;2022-11-18T11:15:47;96104.78;;;10.43;99.73
50774;BME280;36745;48.544;8.918;2022-11-18T11:19:10;96106.53;;;10.32;99.34
50774;BME280;36745;48.544;8.918;2022-11-18T11:22:32;96107.69;;;10.16;98.20
50774;BME280;36745;48.544;8.918;2022-11-18T11:25:59;96115.41;;;9.94;97.59
50774;BME280;36745;48.544;8.918;2022-11-18T11:29:42;96123.41;;;9.83;97.40
50774;BME280;36745;48.544;8.918;2022-11-18T11:33:15;96120.16;;;9.93;97.94
50774;BME280;36745;48.544;8.918;2022-11-18T11:52:10;96130.03;;;10.09;97.33
50774;BME280;36745;48.544;8.918;2022-11-18T11:55:40;96127.16;;;10.03;96.42
50774;BME280;36745;48.544;8.918;2022-11-18T12:02:55;96131.91;;;9.94;95.47
50774;BME280;36745;48.544;8.918;2022-11-18T12:06:18;96121.53;;;9.98;95.70
50774;BME280;36745;48.544;8.918;2022-11-18T12:20:47;96133.63;;;11.87;92.46
50774;BME280;36745;48.544;8.918;2022-11-18T12:27:58;96133.56;;;12.16;88.01
50774;BME280;36745;48.544;8.918;2022-11-18T12:34:43;96132.34;;;11.88;87.02
50774;BME280;36745;48.544;8.918;2022-11-18T12:38:04;96144.22;;;11.35;85.56
50774;BME280;36745;48.544;8.918;2022-11-18T12:59:39;96153.56;;;12.61;86.28
50774;BME280;36745;48.544;8.918;2022-11-18T13:03:01;96144.91;;;13.55;86.82
50774;BME280;36745;48.544;8.918;2022-11-18T13:06:28;96147.72;;;13.60;82.40
50774;BME280;36745;48.544;8.918;2022-11-18T13:09:50;96145.16;;;13.82;81.63
50774;BME280;36745;48.544;8.918;2022-11-18T13:13:27;96139.63;;;13.57;78.16
50774;BME280;36745;48.544;8.918;2022-11-18T13:16:49;96154.56;;;12.98;75.78
50774;BME280;36745;48.544;8.918;2022-11-18T13:20:37;96154.97;;;12.91;74.97
50774;BME280;36745;48.544;8.918;2022-11-18T13:23:59;96161.09;;;13.16;76.23
50774;BME280;36745;48.544;8.918;2022-11-18T13:27:34;96159.78;;;12.96;74.82
50774;BME280;36745;48.544;8.918;2022-11-18T13:31:03;96164.84;;;12.43;74.14
50774;BME280;36745;48.544;8.918;2022-11-18T13:34:28;96165.78;;;12.05;74.94
50774;BME280;36745;48.544;8.918;2022-11-18T13:37:58;96169.72;;;11.45;74.15
50774;BME280;36745;48.544;8.918;2022-11-18T13:41:21;96177.50;;;11.17;74.38
50774;BME280;36745;48.544;8.918;2022-11-18T13:48:15;96177.91;;;11.01;75.26
50774;BME280;36745;48.544;8.918;2022-11-18T13:51:36;96178.91;;;10.89;75.45
50774;BME280;36745;48.544;8.918;2022-11-18T13:54:59;96182.25;;;10.69;75.83
50774;BME280;36745;48.544;8.918;2022-11-18T14:01:54;96182.72;;;10.68;76.68
50774;BME280;36745;48.544;8.918;2022-11-18T14:05:17;96187.00;;;10.69;76.70
50774;BME280;36745;48.544;8.918;2022-11-18T14:08:40;96171.28;;;10.84;77.66
50774;BME280;36745;48.544;8.918;2022-11-18T14:18:50;96183.75;;;10.46;77.10
50774;BME280;36745;48.544;8.918;2022-11-18T14:22:25;96189.97;;;10.23;77.27
50774;BME280;36745;48.544;8.918;2022-11-18T14:25:47;96199.19;;;10.20;77.58
50774;BME280;36745;48.544;8.918;2022-11-18T14:29:17;96191.06;;;10.17;77.82
50774;BME280;36745;48.544;8.918;2022-11-18T14:36:25;96200.09;;;10.08;78.07
50774;BME280;36745;48.544;8.918;2022-11-18T14:39:54;96196.31;;;9.96;78.31
50774;BME280;36745;48.544;8.918;2022-11-18T14:43:15;96202.00;;;9.84;78.32
50774;BME280;36745;48.544;8.918;2022-11-18T14:46:37;96204.66;;;9.60;78.90
50774;BME280;36745;48.544;8.918;2022-11-18T14:49:59;96201.91;;;9.51;79.42
50774;BME280;36745;48.544;8.918;2022-11-18T14:53:21;96209.25;;;9.54;79.96
50774;BME280;36745;48.544;8.918;2022-11-18T14:56:42;96215.50;;;9.54;80.58
50774;BME280;36745;48.544;8.918;2022-11-18T15:00:04;96220.41;;;9.59;80.63
50774;BME280;36745;48.544;8.918;2022-11-18T15:03:26;96222.84;;;9.57;81.02
50774;BME280;36745;48.544;8.918;2022-11-18T15:06:47;96235.38;;;9.58;81.28
50774;BME280;36745;48.544;8.918;2022-11-18T15:10:12;96230.47;;;9.62;81.79
50774;BME280;36745;48.544;8.918;2022-11-18T15:13:35;96234.44;;;9.61;81.82
50774;BME280;36745;48.544;8.918;2022-11-18T15:16:57;96236.44;;;9.70;81.11
50774;BME280;36745;48.544;8.918;2022-11-18T15:20:20;96235.84;;;9.66;81.77
50774;BME280;36745;48.544;8.918;2022-11-18T15:23:42;96243.31;;;9.65;81.78
50774;BME280;36745;48.544;8.918;2022-11-18T15:27:04;96236.91;;;9.59;80.67
50774;BME280;36745;48.544;8.918;2022-11-18T15:30:25;96234.75;;;9.18;81.85
50774;BME280;36745;48.544;8.918;2022-11-18T15:33:47;96231.22;;;9.08;81.72
50774;BME280;36745;48.544;8.918;2022-11-18T15:37:11;96243.38;;;8.80;82.64
50774;BME280;36745;48.544;8.918;2022-11-18T15:40:32;96235.56;;;8.60;83.13
50774;BME280;36745;48.544;8.918;2022-11-18T15:43:57;96251.22;;;8.41;84.16
50774;BME280;36745;48.544;8.918;2022-11-18T15:47:19;96248.53;;;8.29;84.68
50774;BME280;36745;48.544;8.918;2022-11-18T15:50:40;96262.53;;;8.22;85.11
50774;BME280;36745;48.544;8.918;2022-11-18T15:54:02;96254.25;;;8.13;85.44
50774;BME280;36745;48.544;8.918;2022-11-18T15:57:23;96265.81;;;8.08;85.84
50774;BME280;36745;48.544;8.918;2022-11-18T16:00:44;96272.78;;;7.99;86.45
50774;BME280;36745;48.544;8.918;2022-11-18T16:04:07;96273.63;;;7.87;86.72
50774;BME280;36745;48.544;8.918;2022-11-18T16:07:28;96272.59;;;7.72;86.99
50774;BME280;36745;48.544;8.918;2022-11-18T16:10:56;96276.19;;;7.60;87.41
50774;BME280;36745;48.544;8.918;2022-11-18T16:14:36;96273.50;;;7.47;87.54
50774;BME280;36745;48.544;8.918;2022-11-18T16:17:58;96277.69;;;7.39;88.47
50774;BME280;36745;48.544;8.918;2022-11-18T16:21:20;96278.69;;;7.33;88.89
50774;BME280;36745;48.544;8.918;2022-11-18T16:24:42;96287.91;;;7.39;89.79
50774;BME280;36745;48.544;8.918;2022-11-18T16:28:03;96291.59;;;7.45;90.47
50774;BME280;36745;48.544;8.918;2022-11-18T16:31:25;96287.97;;;7.48;90.01
50774;BME280;36745;48.544;8.918;2022-11-18T16:35:01;96284.13;;;7.45;89.63
50774;BME280;36745;48.544;8.918;2022-11-18T16:38:23;96294.44;;;7.41;90.16
50774;BME280;36745;48.544;8.918;2022-11-18T16:41:45;96298.47;;;7.28;89.81
50774;BME280;36745;48.544;8.918;2022-11-18T16:45:06;96295.63;;;7.18;90.37
50774;BME280;36745;48.544;8.918;2022-11-18T16:48:28;96303.53;;;7.16;90.80
50774;BME280;36745;48.544;8.918;2022-11-18T16:51:51;96311.28;;;7.18;91.18
50774;BME280;36745;48.544;8.918;2022-11-18T16:55:12;96323.34;;;7.21;91.19
50774;BME280;36745;48.544;8.918;2022-11-18T16:58:34;96330.38;;;7.22;91.40
50774;BME280;36745;48.544;8.918;2022-11-18T17:01:56;96332.47;;;7.18;91.58
50774;BME280;36745;48.544;8.918;2022-11-18T17:05:18;96333.97;;;7.18;92.06
50774;BME280;36745;48.544;8.918;2022-11-18T17:08:40;96339.81;;;7.21;92.66
50774;BME280;36745;48.544;8.918;2022-11-18T17:12:01;96340.13;;;7.23;92.27
50774;BME280;36745;48.544;8.918;2022-11-18T17:15:23;96341.56;;;7.27;92.96
50774;BME280;36745;48.544;8.918;2022-11-18T17:18:45;96343.94;;;7.25;93.03
50774;BME280;36745;48.544;8.918;2022-11-18T17:22:06;96342.06;;;7.35;93.02
50774;BME280;36745;48.544;8.918;2022-11-18T17:25:28;96341.84;;;7.42;93.10
50774;BME280;36745;48.544;8.918;2022-11-18T17:28:49;96336.22;;;7.45;93.49
50774;BME280;36745;48.544;8.918;2022-11-18T17:32:10;96352.56;;;7.49;93.58
50774;BME280;36745;48.544;8.918;2022-11-18T17:35:31;96351.09;;;7.57;92.55
50774;BME280;36745;48.544;8.918;2022-11-18T17:38:55;96352.16;;;7.72;90.79
50774;BME280;36745;48.544;8.918;2022-11-18T17:42:16;96354.09;;;7.50;91.96
50774;BME280;36745;48.544;8.918;2022-11-18T17:45:42;96356.09;;;7.37;92.42
50774;BME280;36745;48.544;8.918;2022-11-18T17:49:13;96356.88;;;7.37;92.47
50774;BME280;36745;48.544;8.918;2022-11-18T17:52:35;96352.66;;;7.45;91.43
50774;BME280;36745;48.544;8.918;2022-11-18T17:55:57;96357.66;;;7.38;92.58
50774;BME280;36745;48.544;8.918;2022-11-18T17:59:19;96363.34;;;7.43;92.13
50774;BME280;36745;48.544;8.918;2022-11-18T18:02:41;96352.81;;;7.42;92.50
50774;BME280;36745;48.544;8.918;2022-11-18T18:06:03;96355.63;;;7.51;91.31
50774;BME280;36745;48.544;8.918;2022-11-18T18:09:24;96358.16;;;7.45;93.00
50774;BME280;36745;48.544;8.918;2022-11-18T18:12:46;96356.53;;;7.48;93.45
50774;BME280;36745;48.544;8.918;2022-11-18T18:16:27;96371.19;;;7.54;93.24
50774;BME280;36745;48.544;8.918;2022-11-18T18:19:49;96358.69;;;7.53;93.84
50774;BME280;36745;48.544;8.918;2022-11-18T18:23:10;96373.38;;;7.59;93.31
50774;BME280;36745;48.544;8.918;2022-11-18T18:26:32;96377.09;;;7.65;92.78
50774;BME280;36745;48.544;8.918;2022-11-18T18:29:53;96379.09;;;7.52;94.62
50774;BME280;36745;48.544;8.918;2022-11-18T18:33:15;96381.00;;;7.42;95.45
50774;BME280;36745;48.544;8.918;2022-11-18T18:36:37;96385.50;;;7.36;96.16
50774;BME280;36745;48.544;8.918;2022-11-18T18:39:58;96387.91;;;7.34;96.45
50774;BME280;36745;48.544;8.918;2022-11-18T18:43:20;96391.41;;;7.35;96.57
50774;BME280;36745;48.544;8.918;2022-11-18T18:46:41;96392.94;;;7.36;96.05
50774;BME280;36745;48.544;8.918;2022-11-18T18:50:03;96382.22;;;7.29;96.72
50774;BME280;36745;48.544;8.918;2022-11-18T18:53:24;96393.41;;;7.22;95.67
50774;BME280;36745;48.544;8.918;2022-11-18T18:56:46;96390.97;;;7.24;97.13
50774;BME280;36745;48.544;8.918;2022-11-18T19:00:09;96396.38;;;7.27;97.07
50774;BME280;36745;48.544;8.918;2022-11-18T19:03:30;96403.41;;;7.28;97.92
50774;BME280;36745;48.544;8.918;2022-11-18T19:06:52;96400.09;;;7.33;97.38
50774;BME280;36745;48.544;8.918;2022-11-18T19:10:13;96405.47;;;7.37;97.72
50774;BME280;36745;48.544;8.918;2022-11-18T19:13:35;96406.22;;;7.37;98.25
50774;BME280;36745;48.544;8.918;2022-11-18T19:16:56;96400.19;;;7.42;96.99
50774;BME280;36745;48.544;8.918;2022-11-18T19:20:17;96403.91;;;7.36;97.16
50774;BME280;36745;48.544;8.918;2022-11-18T19:23:54;96408.09;;;7.28;96.53
50774;BME280;36745;48.544;8.918;2022-11-18T19:27:16;96418.41;;;7.24;97.12
50774;BME280;36745;48.544;8.918;2022-11-18T19:30:37;96420.63;;;7.29;95.94
50774;BME280;36745;48.544;8.918;2022-11-18T19:33:58;96418.31;;;7.27;96.19
50774;BME280;36745;48.544;8.918;2022-11-18T19:37:20;96412.50;;;7.12;96.79
50774;BME280;36745;48.544;8.918;2022-11-18T19:40:41;96414.91;;;7.10;96.87
50774;BME280;36745;48.544;8.918;2022-11-18T19:44:02;96425.31;;;7.15;96.91
50774;BME280;36745;48.544;8.918;2022-11-18T19:47:24;96423.03;;;7.01;97.19
50774;BME280;36745;48.544;8.918;2022-11-18T19:50:46;96418.75;;;7.00;97.17